sensor_id;sensor_type;location;lat;lon;timestamp;P1;durP1;ratioP1;P2;durP2;ratioP2
2293;SDS011;1155;42.644;23.264;2023-11-21T00:02:18;0.83;;;0.73;;
2293;SDS011;1155;42.644;23.264;2023-11-21T00:04:45;1.30;;;0.90;;
2293;SDS011;1155;42.644;23.264;2023-11-21T00:07:13;1.27;;;0.93;;
2293;SDS011;1155;42.644;23.264;2023-11-21T00:09:40;2.17;;;1.00;;
2293;SDS011;1155;42.644;23.264;2023-11-21T00:12:07;1.87;;;1.00;;
2293;SDS011;1155;42.644;23.264;2023-11-21T00:14:35;1.27;;;0.90;;
2293;SDS011;1155;42.644;23.264;2023-11-21T00:17:03;1.40;;;1.20;;
2293;SDS011;1155;42.644;23.264;2023-11-21T00:19:30;1.73;;;1.63;;
2293;SDS011;1155;42.644;23.264;2023-11-21T00:21:58;2.23;;;1.40;;
2293;SDS011;1155;42.644;23.264;2023-11-21T00:24:25;1.67;;;1.57;;
2293;SDS011;1155;42.644;23.264;2023-11-21T00:26:52;1.20;;;1.10;;
2293;SDS011;1155;42.644;23.264;2023-11-21T00:29:19;1.20;;;1.10;;
2293;SDS011;1155;42.644;23.264;2023-11-21T00:31:46;7.50;;;1.27;;
2293;SDS011;1155;42.644;23.264;2023-11-21T00:34:14;2.50;;;1.03;;
2293;SDS011;1155;42.644;23.264;2023-11-21T00:36:41;1.20;;;1.00;;
2293;SDS011;1155;42.644;23.264;2023-11-21T00:39:08;1.77;;;1.10;;
2293;SDS011;1155;42.644;23.264;2023-11-21T00:41:35;1.87;;;1.63;;
2293;SDS011;1155;42.644;23.264;2023-11-21T00:44:02;1.93;;;1.57;;
2293;SDS011;1155;42.644;23.264;2023-11-21T00:46:29;1.37;;;1.27;;
2293;SDS011;1155;42.644;23.264;2023-11-21T00:48:56;1.50;;;1.40;;
2293;SDS011;1155;42.644;23.264;2023-11-21T00:51:25;1.07;;;0.97;;
2293;SDS011;1155;42.644;23.264;2023-11-21T00:53:51;1.07;;;0.80;;
2293;SDS011;1155;42.644;23.264;2023-11-21T00:56:18;1.20;;;1.10;;
2293;SDS011;1155;42.644;23.264;2023-11-21T00:58:45;1.10;;;1.00;;
2293;SDS011;1155;42.644;23.264;2023-11-21T01:01:15;1.23;;;1.13;;
2293;SDS011;1155;42.644;23.264;2023-11-21T01:03:42;1.10;;;0.80;;
2293;SDS011;1155;42.644;23.264;2023-11-21T01:06:09;1.10;;;0.90;;
2293;SDS011;1155;42.644;23.264;2023-11-21T01:08:37;2.13;;;1.23;;
2293;SDS011;1155;42.644;23.264;2023-11-21T01:11:04;1.10;;;0.87;;
2293;SDS011;1155;42.644;23.264;2023-11-21T01:13:33;0.90;;;0.90;;
2293;SDS011;1155;42.644;23.264;2023-11-21T01:16:01;1.07;;;0.97;;
2293;SDS011;1155;42.644;23.264;2023-11-21T01:18:29;0.83;;;0.70;;
2293;SDS011;1155;42.644;23.264;2023-11-21T01:20:55;1.10;;;0.80;;
2293;SDS011;1155;42.644;23.264;2023-11-21T01:23:22;0.93;;;0.93;;
2293;SDS011;1155;42.644;23.264;2023-11-21T01:25:50;1.43;;;0.77;;
2293;SDS011;1155;42.644;23.264;2023-11-21T01:28:17;5.77;;;1.17;;
2293;SDS011;1155;42.644;23.264;2023-11-21T01:30:44;0.80;;;0.73;;
2293;SDS011;1155;42.644;23.264;2023-11-21T01:33:11;8.70;;;1.37;;
2293;SDS011;1155;42.644;23.264;2023-11-21T01:35:40;1.40;;;1.27;;
2293;SDS011;1155;42.644;23.264;2023-11-21T01:38:07;11.20;;;2.83;;
2293;SDS011;1155;42.644;23.264;2023-11-21T01:40:34;11.03;;;7.70;;
2293;SDS011;1155;42.644;23.264;2023-11-21T01:43:02;6.00;;;5.40;;
2293;SDS011;1155;42.644;23.264;2023-11-21T01:45:29;2.70;;;2.47;;
2293;SDS011;1155;42.644;23.264;2023-11-21T01:47:58;3.03;;;2.73;;
2293;SDS011;1155;42.644;23.264;2023-11-21T01:50:26;3.70;;;3.03;;
2293;SDS011;1155;42.644;23.264;2023-11-21T01:52:54;3.13;;;2.83;;
2293;SDS011;1155;42.644;23.264;2023-11-21T01:55:21;5.60;;;2.37;;
2293;SDS011;1155;42.644;23.264;2023-11-21T01:57:48;6.77;;;3.20;;
2293;SDS011;1155;42.644;23.264;2023-11-21T02:00:17;4.73;;;3.33;;
2293;SDS011;1155;42.644;23.264;2023-11-21T02:02:44;4.37;;;3.10;;
2293;SDS011;1155;42.644;23.264;2023-11-21T02:05:12;3.30;;;2.47;;
2293;SDS011;1155;42.644;23.264;2023-11-21T02:07:42;3.53;;;2.20;;
2293;SDS011;1155;42.644;23.264;2023-11-21T02:10:09;6.40;;;2.70;;
2293;SDS011;1155;42.644;23.264;2023-11-21T02:12:39;3.30;;;2.47;;
2293;SDS011;1155;42.644;23.264;2023-11-21T02:15:07;9.77;;;4.30;;
2293;SDS011;1155;42.644;23.264;2023-11-21T02:17:41;2.17;;;1.60;;
2293;SDS011;1155;42.644;23.264;2023-11-21T02:20:09;4.03;;;2.60;;
2293;SDS011;1155;42.644;23.264;2023-11-21T02:22:40;2.50;;;2.23;;
2293;SDS011;1155;42.644;23.264;2023-11-21T02:25:09;2.80;;;2.37;;
2293;SDS011;1155;42.644;23.264;2023-11-21T02:27:36;6.10;;;3.60;;
2293;SDS011;1155;42.644;23.264;2023-11-21T02:30:04;4.40;;;3.00;;
2293;SDS011;1155;42.644;23.264;2023-11-21T02:32:33;6.57;;;2.97;;
2293;SDS011;1155;42.644;23.264;2023-11-21T02:35:00;3.23;;;2.83;;
2293;SDS011;1155;42.644;23.264;2023-11-21T02:37:27;5.70;;;2.90;;
2293;SDS011;1155;42.644;23.264;2023-11-21T02:39:54;3.70;;;2.57;;
2293;SDS011;1155;42.644;23.264;2023-11-21T02:42:22;3.17;;;2.40;;
2293;SDS011;1155;42.644;23.264;2023-11-21T02:44:49;4.37;;;3.70;;
2293;SDS011;1155;42.644;23.264;2023-11-21T02:47:16;4.00;;;3.00;;
2293;SDS011;1155;42.644;23.264;2023-11-21T02:49:43;3.30;;;1.90;;
2293;SDS011;1155;42.644;23.264;2023-11-21T02:52:10;1.70;;;1.10;;
2293;SDS011;1155;42.644;23.264;2023-11-21T02:54:36;1.43;;;1.33;;
2293;SDS011;1155;42.644;23.264;2023-11-21T02:57:03;1.20;;;0.90;;
2293;SDS011;1155;42.644;23.264;2023-11-21T02:59:32;1.53;;;1.17;;
2293;SDS011;1155;42.644;23.264;2023-11-21T03:01:59;1.60;;;1.13;;
2293;SDS011;1155;42.644;23.264;2023-11-21T03:04:26;4.53;;;1.30;;
2293;SDS011;1155;42.644;23.264;2023-11-21T03:06:53;3.00;;;1.13;;
2293;SDS011;1155;42.644;23.264;2023-11-21T03:09:20;6.93;;;1.83;;
2293;SDS011;1155;42.644;23.264;2023-11-21T03:11:47;1.80;;;1.43;;
2293;SDS011;1155;42.644;23.264;2023-11-21T03:14:13;3.20;;;1.10;;
2293;SDS011;1155;42.644;23.264;2023-11-21T03:16:42;1.37;;;1.27;;
2293;SDS011;1155;42.644;23.264;2023-11-21T03:19:10;1.47;;;1.37;;
2293;SDS011;1155;42.644;23.264;2023-11-21T03:21:37;2.03;;;1.03;;
2293;SDS011;1155;42.644;23.264;2023-11-21T03:24:04;2.10;;;1.20;;
2293;SDS011;1155;42.644;23.264;2023-11-21T03:26:32;3.27;;;1.30;;
2293;SDS011;1155;42.644;23.264;2023-11-21T03:28:59;2.13;;;1.50;;
2293;SDS011;1155;42.644;23.264;2023-11-21T03:31:26;2.37;;;1.30;;
2293;SDS011;1155;42.644;23.264;2023-11-21T03:33:54;2.87;;;1.50;;
2293;SDS011;1155;42.644;23.264;2023-11-21T03:36:21;1.33;;;1.23;;
2293;SDS011;1155;42.644;23.264;2023-11-21T03:38:50;2.50;;;1.43;;
2293;SDS011;1155;42.644;23.264;2023-11-21T03:41:17;2.13;;;1.70;;
2293;SDS011;1155;42.644;23.264;2023-11-21T03:43:43;1.50;;;1.40;;
2293;SDS011;1155;42.644;23.264;2023-11-21T03:46:10;2.27;;;1.23;;
2293;SDS011;1155;42.644;23.264;2023-11-21T03:48:38;1.30;;;1.20;;
2293;SDS011;1155;42.644;23.264;2023-11-21T03:51:06;1.83;;;1.53;;
2293;SDS011;1155;42.644;23.264;2023-11-21T03:53:33;7.67;;;1.60;;
2293;SDS011;1155;42.644;23.264;2023-11-21T03:56:01;3.63;;;2.63;;
2293;SDS011;1155;42.644;23.264;2023-11-21T03:58:29;2.07;;;1.80;;
2293;SDS011;1155;42.644;23.264;2023-11-21T04:00:55;1.67;;;1.57;;
2293;SDS011;1155;42.644;23.264;2023-11-21T04:03:22;2.60;;;2.30;;
2293;SDS011;1155;42.644;23.264;2023-11-21T04:05:49;1.70;;;1.60;;
2293;SDS011;1155;42.644;23.264;2023-11-21T04:08:17;1.50;;;1.40;;
2293;SDS011;1155;42.644;23.264;2023-11-21T04:10:44;1.67;;;1.57;;
2293;SDS011;1155;42.644;23.264;2023-11-21T04:13:11;7.60;;;4.90;;
2293;SDS011;1155;42.644;23.264;2023-11-21T04:15:38;2.73;;;2.50;;
2293;SDS011;1155;42.644;23.264;2023-11-21T04:18:05;2.57;;;1.47;;
2293;SDS011;1155;42.644;23.264;2023-11-21T04:20:32;1.40;;;1.10;;
2293;SDS011;1155;42.644;23.264;2023-11-21T04:22:59;3.90;;;1.73;;
2293;SDS011;1155;42.644;23.264;2023-11-21T04:25:27;7.30;;;6.03;;
2293;SDS011;1155;42.644;23.264;2023-11-21T04:27:54;4.20;;;3.80;;
2293;SDS011;1155;42.644;23.264;2023-11-21T04:30:20;7.70;;;2.03;;
2293;SDS011;1155;42.644;23.264;2023-11-21T04:32:47;1.67;;;1.57;;
2293;SDS011;1155;42.644;23.264;2023-11-21T04:35:15;1.73;;;1.50;;
2293;SDS011;1155;42.644;23.264;2023-11-21T04:37:42;5.60;;;1.87;;
2293;SDS011;1155;42.644;23.264;2023-11-21T04:40:10;4.30;;;1.87;;
2293;SDS011;1155;42.644;23.264;2023-11-21T04:42:39;1.47;;;1.37;;
2293;SDS011;1155;42.644;23.264;2023-11-21T04:45:06;2.13;;;1.40;;
2293;SDS011;1155;42.644;23.264;2023-11-21T04:47:36;4.07;;;3.63;;
2293;SDS011;1155;42.644;23.264;2023-11-21T04:50:03;2.60;;;1.83;;
2293;SDS011;1155;42.644;23.264;2023-11-21T04:52:32;2.20;;;1.73;;
2293;SDS011;1155;42.644;23.264;2023-11-21T04:54:59;1.97;;;1.77;;
2293;SDS011;1155;42.644;23.264;2023-11-21T04:57:26;2.00;;;1.70;;
2293;SDS011;1155;42.644;23.264;2023-11-21T04:59:55;3.30;;;2.87;;
2293;SDS011;1155;42.644;23.264;2023-11-21T05:02:21;3.30;;;3.10;;
2293;SDS011;1155;42.644;23.264;2023-11-21T05:04:48;2.37;;;1.97;;
2293;SDS011;1155;42.644;23.264;2023-11-21T05:07:15;11.00;;;2.10;;
2293;SDS011;1155;42.644;23.264;2023-11-21T05:09:43;4.73;;;2.10;;
2293;SDS011;1155;42.644;23.264;2023-11-21T05:12:11;2.33;;;2.10;;
2293;SDS011;1155;42.644;23.264;2023-11-21T05:14:38;9.47;;;6.33;;
2293;SDS011;1155;42.644;23.264;2023-11-21T05:17:06;6.00;;;4.60;;
2293;SDS011;1155;42.644;23.264;2023-11-21T05:19:33;5.13;;;3.70;;
2293;SDS011;1155;42.644;23.264;2023-11-21T05:22:01;7.53;;;4.43;;
2293;SDS011;1155;42.644;23.264;2023-11-21T05:24:28;4.73;;;4.20;;
2293;SDS011;1155;42.644;23.264;2023-11-21T05:26:55;8.47;;;4.23;;
2293;SDS011;1155;42.644;23.264;2023-11-21T05:29:22;5.23;;;4.30;;
2293;SDS011;1155;42.644;23.264;2023-11-21T05:31:50;5.43;;;3.17;;
2293;SDS011;1155;42.644;23.264;2023-11-21T05:34:19;5.33;;;2.80;;
2293;SDS011;1155;42.644;23.264;2023-11-21T05:36:49;5.00;;;2.70;;
2293;SDS011;1155;42.644;23.264;2023-11-21T05:39:15;3.20;;;2.63;;
2293;SDS011;1155;42.644;23.264;2023-11-21T05:41:43;3.07;;;2.13;;
2293;SDS011;1155;42.644;23.264;2023-11-21T05:44:11;4.90;;;3.43;;
2293;SDS011;1155;42.644;23.264;2023-11-21T05:46:39;2.63;;;2.10;;
2293;SDS011;1155;42.644;23.264;2023-11-21T05:49:08;2.70;;;2.47;;
2293;SDS011;1155;42.644;23.264;2023-11-21T05:51:36;3.90;;;2.37;;
2293;SDS011;1155;42.644;23.264;2023-11-21T05:54:04;7.10;;;4.37;;
2293;SDS011;1155;42.644;23.264;2023-11-21T05:56:31;6.23;;;4.30;;
2293;SDS011;1155;42.644;23.264;2023-11-21T05:58:57;17.07;;;8.27;;
2293;SDS011;1155;42.644;23.264;2023-11-21T06:01:24;11.43;;;6.00;;
2293;SDS011;1155;42.644;23.264;2023-11-21T06:03:53;4.93;;;3.70;;
2293;SDS011;1155;42.644;23.264;2023-11-21T06:06:20;6.23;;;3.93;;
2293;SDS011;1155;42.644;23.264;2023-11-21T06:08:51;4.43;;;3.33;;
2293;SDS011;1155;42.644;23.264;2023-11-21T06:11:18;2.60;;;2.40;;
2293;SDS011;1155;42.644;23.264;2023-11-21T06:13:45;3.80;;;3.07;;
2293;SDS011;1155;42.644;23.264;2023-11-21T06:16:13;5.33;;;3.43;;
2293;SDS011;1155;42.644;23.264;2023-11-21T06:18:41;12.40;;;3.60;;
2293;SDS011;1155;42.644;23.264;2023-11-21T06:21:09;2.57;;;2.20;;
2293;SDS011;1155;42.644;23.264;2023-11-21T06:23:35;3.93;;;3.47;;
2293;SDS011;1155;42.644;23.264;2023-11-21T06:26:04;4.70;;;3.50;;
2293;SDS011;1155;42.644;23.264;2023-11-21T06:28:31;4.07;;;3.70;;
2293;SDS011;1155;42.644;23.264;2023-11-21T06:30:58;5.23;;;4.17;;
2293;SDS011;1155;42.644;23.264;2023-11-21T06:33:30;7.30;;;4.40;;
2293;SDS011;1155;42.644;23.264;2023-11-21T06:35:57;8.60;;;4.20;;
2293;SDS011;1155;42.644;23.264;2023-11-21T06:38:23;6.57;;;4.40;;
2293;SDS011;1155;42.644;23.264;2023-11-21T06:40:55;6.40;;;4.40;;
2293;SDS011;1155;42.644;23.264;2023-11-21T06:43:23;7.57;;;5.80;;
2293;SDS011;1155;42.644;23.264;2023-11-21T06:45:52;15.23;;;7.60;;
2293;SDS011;1155;42.644;23.264;2023-11-21T06:48:19;14.17;;;9.30;;
2293;SDS011;1155;42.644;23.264;2023-11-21T06:50:46;21.47;;;11.00;;
2293;SDS011;1155;42.644;23.264;2023-11-21T06:53:13;24.87;;;12.90;;
2293;SDS011;1155;42.644;23.264;2023-11-21T06:55:40;22.77;;;14.80;;
2293;SDS011;1155;42.644;23.264;2023-11-21T06:58:07;20.93;;;16.77;;
2293;SDS011;1155;42.644;23.264;2023-11-21T07:00:35;18.17;;;12.30;;
2293;SDS011;1155;42.644;23.264;2023-11-21T07:03:02;25.00;;;15.20;;
2293;SDS011;1155;42.644;23.264;2023-11-21T07:05:29;21.37;;;14.63;;
2293;SDS011;1155;42.644;23.264;2023-11-21T07:07:56;15.90;;;12.40;;
2293;SDS011;1155;42.644;23.264;2023-11-21T07:10:29;28.17;;;18.27;;
2293;SDS011;1155;42.644;23.264;2023-11-21T07:12:56;22.73;;;15.93;;
2293;SDS011;1155;42.644;23.264;2023-11-21T07:15:23;21.00;;;14.73;;
2293;SDS011;1155;42.644;23.264;2023-11-21T07:17:52;22.13;;;15.80;;
2293;SDS011;1155;42.644;23.264;2023-11-21T07:20:19;20.07;;;14.27;;
2293;SDS011;1155;42.644;23.264;2023-11-21T07:22:46;24.60;;;18.17;;
2293;SDS011;1155;42.644;23.264;2023-11-21T07:25:23;16.77;;;15.00;;
2293;SDS011;1155;42.644;23.264;2023-11-21T07:27:49;25.03;;;16.20;;
2293;SDS011;1155;42.644;23.264;2023-11-21T07:30:16;19.20;;;15.53;;
2293;SDS011;1155;42.644;23.264;2023-11-21T07:32:43;23.33;;;17.70;;
2293;SDS011;1155;42.644;23.264;2023-11-21T07:35:14;35.93;;;19.60;;
2293;SDS011;1155;42.644;23.264;2023-11-21T07:37:41;26.50;;;17.40;;
2293;SDS011;1155;42.644;23.264;2023-11-21T07:40:09;28.80;;;18.47;;
2293;SDS011;1155;42.644;23.264;2023-11-21T07:42:36;29.23;;;18.27;;
2293;SDS011;1155;42.644;23.264;2023-11-21T07:45:04;22.80;;;17.80;;
2293;SDS011;1155;42.644;23.264;2023-11-21T07:47:32;33.07;;;19.70;;
2293;SDS011;1155;42.644;23.264;2023-11-21T07:49:59;30.93;;;21.93;;
2293;SDS011;1155;42.644;23.264;2023-11-21T07:52:29;36.83;;;21.03;;
2293;SDS011;1155;42.644;23.264;2023-11-21T07:54:56;30.30;;;20.93;;
2293;SDS011;1155;42.644;23.264;2023-11-21T07:57:23;25.33;;;20.80;;
2293;SDS011;1155;42.644;23.264;2023-11-21T07:59:50;32.63;;;19.80;;
2293;SDS011;1155;42.644;23.264;2023-11-21T08:02:18;27.13;;;19.13;;
2293;SDS011;1155;42.644;23.264;2023-11-21T08:04:45;23.67;;;18.50;;
2293;SDS011;1155;42.644;23.264;2023-11-21T08:07:14;31.50;;;20.70;;
2293;SDS011;1155;42.644;23.264;2023-11-21T08:09:43;28.23;;;19.83;;
2293;SDS011;1155;42.644;23.264;2023-11-21T08:12:11;23.67;;;16.67;;
2293;SDS011;1155;42.644;23.264;2023-11-21T08:14:39;27.20;;;16.00;;
2293;SDS011;1155;42.644;23.264;2023-11-21T08:17:06;24.90;;;15.77;;
2293;SDS011;1155;42.644;23.264;2023-11-21T08:19:35;31.70;;;15.30;;
2293;SDS011;1155;42.644;23.264;2023-11-21T08:22:02;21.03;;;15.77;;
2293;SDS011;1155;42.644;23.264;2023-11-21T08:24:29;35.10;;;21.83;;
2293;SDS011;1155;42.644;23.264;2023-11-21T08:26:57;31.67;;;22.40;;
2293;SDS011;1155;42.644;23.264;2023-11-21T08:29:24;28.60;;;20.97;;
2293;SDS011;1155;42.644;23.264;2023-11-21T08:31:51;29.87;;;21.83;;
2293;SDS011;1155;42.644;23.264;2023-11-21T08:34:18;31.93;;;21.80;;
2293;SDS011;1155;42.644;23.264;2023-11-21T08:36:45;33.03;;;21.00;;
2293;SDS011;1155;42.644;23.264;2023-11-21T08:39:12;32.40;;;20.97;;
2293;SDS011;1155;42.644;23.264;2023-11-21T08:41:41;35.53;;;19.03;;
2293;SDS011;1155;42.644;23.264;2023-11-21T08:44:09;27.27;;;17.87;;
2293;SDS011;1155;42.644;23.264;2023-11-21T08:46:36;19.03;;;16.07;;
2293;SDS011;1155;42.644;23.264;2023-11-21T08:49:05;22.63;;;16.43;;
2293;SDS011;1155;42.644;23.264;2023-11-21T08:51:31;25.23;;;16.30;;
2293;SDS011;1155;42.644;23.264;2023-11-21T08:53:58;24.03;;;15.03;;
2293;SDS011;1155;42.644;23.264;2023-11-21T08:56:29;19.50;;;15.60;;
2293;SDS011;1155;42.644;23.264;2023-11-21T08:58:56;26.90;;;16.07;;
2293;SDS011;1155;42.644;23.264;2023-11-21T09:01:24;17.77;;;14.63;;
2293;SDS011;1155;42.644;23.264;2023-11-21T09:03:51;23.00;;;15.23;;
2293;SDS011;1155;42.644;23.264;2023-11-21T09:06:18;19.13;;;15.43;;
2293;SDS011;1155;42.644;23.264;2023-11-21T09:08:45;23.73;;;16.47;;
2293;SDS011;1155;42.644;23.264;2023-11-21T09:11:12;33.23;;;20.93;;
2293;SDS011;1155;42.644;23.264;2023-11-21T09:13:39;28.97;;;17.70;;
2293;SDS011;1155;42.644;23.264;2023-11-21T09:16:06;28.53;;;20.00;;
2293;SDS011;1155;42.644;23.264;2023-11-21T09:18:34;28.13;;;18.43;;
2293;SDS011;1155;42.644;23.264;2023-11-21T09:21:01;29.30;;;20.17;;
2293;SDS011;1155;42.644;23.264;2023-11-21T09:23:29;35.60;;;20.10;;
2293;SDS011;1155;42.644;23.264;2023-11-21T09:25:56;26.87;;;19.90;;
2293;SDS011;1155;42.644;23.264;2023-11-21T09:28:25;29.27;;;17.73;;
2293;SDS011;1155;42.644;23.264;2023-11-21T09:30:52;48.47;;;26.27;;
2293;SDS011;1155;42.644;23.264;2023-11-21T09:33:22;30.90;;;22.63;;
2293;SDS011;1155;42.644;23.264;2023-11-21T09:35:53;35.00;;;20.60;;
2293;SDS011;1155;42.644;23.264;2023-11-21T09:38:23;27.27;;;21.90;;
2293;SDS011;1155;42.644;23.264;2023-11-21T09:40:50;32.37;;;21.37;;
2293;SDS011;1155;42.644;23.264;2023-11-21T09:43:19;26.93;;;21.00;;
2293;SDS011;1155;42.644;23.264;2023-11-21T09:45:48;26.73;;;20.97;;
2293;SDS011;1155;42.644;23.264;2023-11-21T09:48:20;27.90;;;20.90;;
2293;SDS011;1155;42.644;23.264;2023-11-21T09:50:53;25.10;;;19.40;;
2293;SDS011;1155;42.644;23.264;2023-11-21T09:53:21;27.70;;;18.77;;
2293;SDS011;1155;42.644;23.264;2023-11-21T09:55:50;26.17;;;21.90;;
2293;SDS011;1155;42.644;23.264;2023-11-21T09:58:18;30.90;;;22.67;;
2293;SDS011;1155;42.644;23.264;2023-11-21T10:00:47;36.50;;;24.20;;
2293;SDS011;1155;42.644;23.264;2023-11-21T10:03:15;31.03;;;25.50;;
2293;SDS011;1155;42.644;23.264;2023-11-21T10:05:42;37.03;;;24.30;;
2293;SDS011;1155;42.644;23.264;2023-11-21T10:08:12;27.27;;;21.20;;
2293;SDS011;1155;42.644;23.264;2023-11-21T10:10:42;26.83;;;19.87;;
2293;SDS011;1155;42.644;23.264;2023-11-21T10:13:11;28.57;;;19.10;;
2293;SDS011;1155;42.644;23.264;2023-11-21T10:15:41;33.07;;;19.97;;
2293;SDS011;1155;42.644;23.264;2023-11-21T10:18:13;30.17;;;18.57;;
2293;SDS011;1155;42.644;23.264;2023-11-21T10:20:41;22.87;;;18.10;;
2293;SDS011;1155;42.644;23.264;2023-11-21T10:23:13;40.70;;;20.93;;
2293;SDS011;1155;42.644;23.264;2023-11-21T10:25:41;26.27;;;19.63;;
2293;SDS011;1155;42.644;23.264;2023-11-21T10:28:08;21.30;;;16.47;;
2293;SDS011;1155;42.644;23.264;2023-11-21T10:30:37;24.40;;;17.10;;
2293;SDS011;1155;42.644;23.264;2023-11-21T10:33:05;25.23;;;15.30;;
2293;SDS011;1155;42.644;23.264;2023-11-21T10:35:39;23.03;;;16.30;;
2293;SDS011;1155;42.644;23.264;2023-11-21T10:38:13;33.90;;;17.70;;
2293;SDS011;1155;42.644;23.264;2023-11-21T10:40:40;27.10;;;17.77;;
2293;SDS011;1155;42.644;23.264;2023-11-21T10:43:10;23.30;;;15.20;;
2293;SDS011;1155;42.644;23.264;2023-11-21T10:45:38;30.20;;;17.57;;
2293;SDS011;1155;42.644;23.264;2023-11-21T10:48:05;20.50;;;16.10;;
2293;SDS011;1155;42.644;23.264;2023-11-21T10:50:34;29.20;;;17.67;;
2293;SDS011;1155;42.644;23.264;2023-11-21T10:53:01;27.90;;;16.10;;
2293;SDS011;1155;42.644;23.264;2023-11-21T10:55:31;33.57;;;16.70;;
2293;SDS011;1155;42.644;23.264;2023-11-21T10:57:59;32.10;;;17.10;;
2293;SDS011;1155;42.644;23.264;2023-11-21T11:00:27;21.57;;;16.60;;
2293;SDS011;1155;42.644;23.264;2023-11-21T11:02:54;26.73;;;16.50;;
2293;SDS011;1155;42.644;23.264;2023-11-21T11:05:23;21.13;;;16.40;;
2293;SDS011;1155;42.644;23.264;2023-11-21T11:07:51;26.20;;;16.00;;
2293;SDS011;1155;42.644;23.264;2023-11-21T11:10:25;23.83;;;17.00;;
2293;SDS011;1155;42.644;23.264;2023-11-21T11:12:54;27.70;;;18.10;;
2293;SDS011;1155;42.644;23.264;2023-11-21T11:15:22;34.77;;;17.13;;
2293;SDS011;1155;42.644;23.264;2023-11-21T11:17:50;23.30;;;16.80;;
2293;SDS011;1155;42.644;23.264;2023-11-21T11:20:17;24.53;;;16.00;;
2293;SDS011;1155;42.644;23.264;2023-11-21T11:22:48;22.93;;;15.00;;
2293;SDS011;1155;42.644;23.264;2023-11-21T11:28:17;17.47;;;11.77;;
2293;SDS011;1155;42.644;23.264;2023-11-21T11:30:50;16.53;;;13.27;;
2293;SDS011;1155;42.644;23.264;2023-11-21T11:33:31;14.17;;;10.57;;
2293;SDS011;1155;42.644;23.264;2023-11-21T11:36:08;19.73;;;13.20;;
2293;SDS011;1155;42.644;23.264;2023-11-21T11:38:45;18.40;;;14.10;;
2293;SDS011;1155;42.644;23.264;2023-11-21T11:41:15;20.83;;;12.90;;
2293;SDS011;1155;42.644;23.264;2023-11-21T11:43:53;26.40;;;16.63;;
2293;SDS011;1155;42.644;23.264;2023-11-21T11:46:20;43.93;;;27.27;;
2293;SDS011;1155;42.644;23.264;2023-11-21T11:48:48;20.63;;;13.60;;
2293;SDS011;1155;42.644;23.264;2023-11-21T11:51:15;41.63;;;37.40;;
2293;SDS011;1155;42.644;23.264;2023-11-21T11:53:45;22.80;;;17.00;;
2293;SDS011;1155;42.644;23.264;2023-11-21T11:56:20;24.57;;;16.00;;
2293;SDS011;1155;42.644;23.264;2023-11-21T11:58:50;25.60;;;20.90;;
2293;SDS011;1155;42.644;23.264;2023-11-21T12:01:19;30.00;;;16.40;;
2293;SDS011;1155;42.644;23.264;2023-11-21T12:06:56;25.27;;;18.30;;
2293;SDS011;1155;42.644;23.264;2023-11-21T12:09:27;26.30;;;20.27;;
2293;SDS011;1155;42.644;23.264;2023-11-21T12:11:56;26.20;;;19.83;;
2293;SDS011;1155;42.644;23.264;2023-11-21T12:14:25;25.27;;;20.43;;
2293;SDS011;1155;42.644;23.264;2023-11-21T12:16:52;27.03;;;21.00;;
2293;SDS011;1155;42.644;23.264;2023-11-21T12:19:19;29.43;;;20.70;;
2293;SDS011;1155;42.644;23.264;2023-11-21T12:21:48;23.00;;;20.00;;
2293;SDS011;1155;42.644;23.264;2023-11-21T12:24:15;35.40;;;22.40;;
2293;SDS011;1155;42.644;23.264;2023-11-21T12:26:42;30.43;;;25.57;;
2293;SDS011;1155;42.644;23.264;2023-11-21T12:29:10;38.30;;;28.50;;
2293;SDS011;1155;42.644;23.264;2023-11-21T12:31:38;42.90;;;29.67;;
2293;SDS011;1155;42.644;23.264;2023-11-21T12:34:06;35.30;;;25.33;;
2293;SDS011;1155;42.644;23.264;2023-11-21T12:36:36;48.73;;;26.77;;
2293;SDS011;1155;42.644;23.264;2023-11-21T12:39:03;42.20;;;28.00;;
2293;SDS011;1155;42.644;23.264;2023-11-21T12:41:31;34.70;;;26.10;;
2293;SDS011;1155;42.644;23.264;2023-11-21T12:43:58;31.00;;;25.10;;
2293;SDS011;1155;42.644;23.264;2023-11-21T12:46:24;38.47;;;26.23;;
2293;SDS011;1155;42.644;23.264;2023-11-21T12:48:56;36.07;;;27.97;;
2293;SDS011;1155;42.644;23.264;2023-11-21T12:51:23;43.20;;;31.30;;
2293;SDS011;1155;42.644;23.264;2023-11-21T12:53:50;41.13;;;29.97;;
2293;SDS011;1155;42.644;23.264;2023-11-21T12:56:17;61.90;;;45.90;;
2293;SDS011;1155;42.644;23.264;2023-11-21T12:58:48;39.57;;;32.67;;
2293;SDS011;1155;42.644;23.264;2023-11-21T13:01:16;41.30;;;31.63;;
2293;SDS011;1155;42.644;23.264;2023-11-21T13:03:46;43.87;;;31.13;;
2293;SDS011;1155;42.644;23.264;2023-11-21T13:06:18;39.77;;;32.10;;
2293;SDS011;1155;42.644;23.264;2023-11-21T13:08:49;40.47;;;29.20;;
2293;SDS011;1155;42.644;23.264;2023-11-21T13:11:16;55.83;;;36.73;;
2293;SDS011;1155;42.644;23.264;2023-11-21T13:13:44;42.10;;;31.10;;
2293;SDS011;1155;42.644;23.264;2023-11-21T13:16:11;41.87;;;29.67;;
2293;SDS011;1155;42.644;23.264;2023-11-21T13:18:40;41.30;;;31.40;;
2293;SDS011;1155;42.644;23.264;2023-11-21T13:21:08;48.37;;;33.00;;
2293;SDS011;1155;42.644;23.264;2023-11-21T13:23:40;38.33;;;29.90;;
2293;SDS011;1155;42.644;23.264;2023-11-21T13:26:08;36.27;;;28.90;;
2293;SDS011;1155;42.644;23.264;2023-11-21T13:28:35;66.63;;;41.47;;
2293;SDS011;1155;42.644;23.264;2023-11-21T13:31:03;97.53;;;59.60;;
2293;SDS011;1155;42.644;23.264;2023-11-21T13:33:45;58.07;;;39.23;;
2293;SDS011;1155;42.644;23.264;2023-11-21T13:36:20;52.37;;;36.90;;
2293;SDS011;1155;42.644;23.264;2023-11-21T13:38:50;50.80;;;37.70;;
2293;SDS011;1155;42.644;23.264;2023-11-21T13:41:18;53.50;;;36.40;;
2293;SDS011;1155;42.644;23.264;2023-11-21T13:43:47;128.93;;;80.23;;
2293;SDS011;1155;42.644;23.264;2023-11-21T13:46:23;60.03;;;39.63;;
2293;SDS011;1155;42.644;23.264;2023-11-21T13:48:50;65.73;;;41.93;;
2293;SDS011;1155;42.644;23.264;2023-11-21T13:51:21;49.47;;;32.73;;
2293;SDS011;1155;42.644;23.264;2023-11-21T13:53:57;50.87;;;32.20;;
2293;SDS011;1155;42.644;23.264;2023-11-21T13:56:24;39.53;;;26.73;;
2293;SDS011;1155;42.644;23.264;2023-11-21T13:58:53;38.53;;;26.33;;
2293;SDS011;1155;42.644;23.264;2023-11-21T14:01:23;29.10;;;17.30;;
2293;SDS011;1155;42.644;23.264;2023-11-21T14:04:10;44.10;;;26.67;;
2293;SDS011;1155;42.644;23.264;2023-11-21T14:06:47;35.90;;;24.03;;
2293;SDS011;1155;42.644;23.264;2023-11-21T14:09:16;35.00;;;21.10;;
2293;SDS011;1155;42.644;23.264;2023-11-21T14:11:48;32.50;;;20.67;;
2293;SDS011;1155;42.644;23.264;2023-11-21T14:14:17;22.27;;;15.10;;
2293;SDS011;1155;42.644;23.264;2023-11-21T14:16:44;16.00;;;12.03;;
2293;SDS011;1155;42.644;23.264;2023-11-21T14:19:11;14.93;;;11.70;;
2293;SDS011;1155;42.644;23.264;2023-11-21T14:21:42;15.90;;;9.00;;
2293;SDS011;1155;42.644;23.264;2023-11-21T14:24:09;14.17;;;9.53;;
2293;SDS011;1155;42.644;23.264;2023-11-21T14:26:40;12.20;;;8.60;;
2293;SDS011;1155;42.644;23.264;2023-11-21T14:29:07;9.87;;;7.00;;
2293;SDS011;1155;42.644;23.264;2023-11-21T14:31:37;9.13;;;6.67;;
2293;SDS011;1155;42.644;23.264;2023-11-21T14:34:04;8.40;;;5.73;;
2293;SDS011;1155;42.644;23.264;2023-11-21T14:36:32;8.77;;;5.60;;
2293;SDS011;1155;42.644;23.264;2023-11-21T14:38:58;9.83;;;5.23;;
2293;SDS011;1155;42.644;23.264;2023-11-21T14:41:25;8.07;;;6.20;;
2293;SDS011;1155;42.644;23.264;2023-11-21T14:43:54;15.30;;;9.73;;
2293;SDS011;1155;42.644;23.264;2023-11-21T14:46:22;21.57;;;11.97;;
2293;SDS011;1155;42.644;23.264;2023-11-21T14:48:49;16.30;;;11.67;;
2293;SDS011;1155;42.644;23.264;2023-11-21T14:51:24;14.47;;;11.20;;
2293;SDS011;1155;42.644;23.264;2023-11-21T14:53:55;21.00;;;14.27;;
2293;SDS011;1155;42.644;23.264;2023-11-21T14:56:25;21.80;;;14.13;;
2293;SDS011;1155;42.644;23.264;2023-11-21T14:58:57;20.30;;;15.63;;
2293;SDS011;1155;42.644;23.264;2023-11-21T15:01:30;38.13;;;23.67;;